createdAt,value
2019-02-14T00:00:41.767Z,9.63
2019-02-14T00:03:22.328Z,9.67
2019-02-14T00:06:04.749Z,10.40
2019-02-14T00:08:45.454Z,9.87
2019-02-14T00:11:26.081Z,9.90
2019-02-14T00:14:06.765Z,8.90
2019-02-14T00:16:47.313Z,10.20
2019-02-14T00:19:28.440Z,9.97
2019-02-14T00:22:09.138Z,10.77
2019-02-14T00:24:49.714Z,9.80
2019-02-14T00:27:30.304Z,9.30
2019-02-14T00:30:11.272Z,9.70
2019-02-14T00:32:52.040Z,9.57
2019-02-14T00:35:33.056Z,9.43
2019-02-14T00:38:13.925Z,10.07
2019-02-14T00:40:54.735Z,9.87
2019-02-14T00:43:35.493Z,9.20
2019-02-14T00:46:16.279Z,9.70
2019-02-14T00:48:57.030Z,9.50
2019-02-14T00:51:37.997Z,9.83
2019-02-14T00:54:18.742Z,9.20
2019-02-14T00:56:59.457Z,8.93
2019-02-14T00:59:40.254Z,8.90
2019-02-14T01:02:21.242Z,9.50
2019-02-14T01:05:03.624Z,8.53
2019-02-14T01:07:43.940Z,9.73
2019-02-14T01:10:24.477Z,8.83
2019-02-14T01:13:05.330Z,9.67
2019-02-14T01:15:46.215Z,9.20
2019-02-14T01:18:26.993Z,9.10
2019-02-14T01:21:07.765Z,8.40
2019-02-14T01:23:48.574Z,9.80
2019-02-14T01:26:29.438Z,8.50
2019-02-14T01:29:10.479Z,8.87
2019-02-14T01:31:51.141Z,8.20
2019-02-14T01:34:32.130Z,8.77
2019-02-14T01:37:12.777Z,8.27
2019-02-14T01:39:53.765Z,8.37
2019-02-14T01:42:34.197Z,7.87
2019-02-14T01:45:15.062Z,8.43
2019-02-14T01:47:55.718Z,8.77
2019-02-14T01:50:36.749Z,8.17
2019-02-14T01:53:17.677Z,8.20
2019-02-14T01:55:58.061Z,7.97
2019-02-14T01:58:39.109Z,8.33
2019-02-14T02:01:19.938Z,7.73
2019-02-14T02:04:00.606Z,8.20
2019-02-14T02:06:41.729Z,8.43
2019-02-14T02:09:22.650Z,8.40
2019-02-14T02:12:03.268Z,8.27
2019-02-14T02:14:44.202Z,8.43
2019-02-14T02:17:24.698Z,8.13
2019-02-14T02:20:05.398Z,8.20
2019-02-14T02:22:46.186Z,7.70
2019-02-14T02:25:27.021Z,7.63
2019-02-14T02:28:07.749Z,7.77
2019-02-14T02:33:31.830Z,7.90
2019-02-14T02:36:12.929Z,7.50
2019-02-14T02:38:53.936Z,6.97
2019-02-14T02:41:34.587Z,7.23
2019-02-14T02:44:15.454Z,7.30
2019-02-14T02:46:56.258Z,6.87
2019-02-14T02:49:37.477Z,7.20
2019-02-14T02:52:17.944Z,7.10
2019-02-14T02:54:58.575Z,6.50
2019-02-14T02:57:39.340Z,7.00
2019-02-14T03:00:20.293Z,7.20
2019-02-14T03:03:01.376Z,8.00
2019-02-14T03:05:42.270Z,6.97
2019-02-14T03:08:23.140Z,6.87
2019-02-14T03:11:03.662Z,7.47
2019-02-14T03:13:44.281Z,7.13
2019-02-14T03:16:25.007Z,6.53
2019-02-14T03:19:05.673Z,6.90
2019-02-14T03:21:46.429Z,6.87
2019-02-14T03:24:27.088Z,6.73
2019-02-14T03:27:07.868Z,7.33
2019-02-14T03:29:48.856Z,7.40
2019-02-14T03:32:29.733Z,8.03
2019-02-14T03:35:10.390Z,7.57
2019-02-14T03:37:51.008Z,6.70
2019-02-14T03:40:31.991Z,7.20
2019-02-14T03:43:13.082Z,6.73
2019-02-14T03:45:53.776Z,7.37
2019-02-14T03:48:34.320Z,7.13
2019-02-14T03:51:15.189Z,7.00
2019-02-14T03:53:55.703Z,7.27
2019-02-14T03:56:36.705Z,7.30
2019-02-14T03:59:17.237Z,7.40
2019-02-14T04:01:45.723Z,7.13
2019-02-14T04:04:33.472Z,6.83
2019-02-14T04:07:21.477Z,6.73
2019-02-14T04:10:29.951Z,7.80
2019-02-14T04:13:17.699Z,7.37
2019-02-14T04:16:05.457Z,7.47
2019-02-14T04:18:53.192Z,7.20
2019-02-14T04:21:41.201Z,6.57
2019-02-14T04:24:28.952Z,6.50
2019-02-14T04:27:16.785Z,5.77
2019-02-14T04:30:25.265Z,5.70
2019-02-14T04:33:13.019Z,5.23
2019-02-14T04:36:00.769Z,5.03
2019-02-14T04:38:48.525Z,5.17
2019-02-14T04:41:36.283Z,4.53
2019-02-14T04:44:24.028Z,4.50
2019-02-14T04:47:11.789Z,4.70
2019-02-14T04:49:59.564Z,4.93
2019-02-14T04:52:47.328Z,4.70
2019-02-14T04:55:35.077Z,4.30
2019-02-14T04:58:13.844Z,4.43
2019-02-14T05:01:01.588Z,4.80
2019-02-14T05:03:49.422Z,4.87
2019-02-14T05:06:44.204Z,5.17
2019-02-14T05:09:26.652Z,5.50
2019-02-14T05:12:14.400Z,4.40
2019-02-14T05:15:02.151Z,5.30
2019-02-14T05:17:49.904Z,4.13
2019-02-14T05:20:37.657Z,4.70
2019-02-14T05:23:25.414Z,4.47
2019-02-14T05:26:13.156Z,4.57
2019-02-14T05:29:00.913Z,5.20
2019-02-14T05:31:48.659Z,4.97
2019-02-14T05:34:38.142Z,5.20
2019-02-14T05:37:25.900Z,5.03
2019-02-14T05:40:13.653Z,4.50
2019-02-14T05:43:01.417Z,5.37
2019-02-14T05:45:49.160Z,5.00
2019-02-14T05:48:36.921Z,4.73
2019-02-14T05:51:24.673Z,5.00
2019-02-14T05:54:05.340Z,4.93
2019-02-14T05:56:46.403Z,5.00
2019-02-14T05:59:27.132Z,4.87
2019-02-14T06:02:07.625Z,4.90
2019-02-14T06:04:48.581Z,5.00
2019-02-14T06:07:28.955Z,5.23
2019-02-14T06:10:09.619Z,5.13
2019-02-14T06:12:50.388Z,5.30
2019-02-14T06:15:33.010Z,5.80
2019-02-14T06:18:11.757Z,5.50
2019-02-14T06:20:59.520Z,5.23
2019-02-14T06:23:47.281Z,4.90
2019-02-14T06:26:35.041Z,4.60
2019-02-14T06:29:22.798Z,4.17
2019-02-14T06:32:10.549Z,4.27
2019-02-14T06:34:58.328Z,4.70
2019-02-14T06:37:46.080Z,4.23
2019-02-14T06:40:33.827Z,4.20
2019-02-14T06:43:21.580Z,4.07
2019-02-14T06:46:30.061Z,4.50
2019-02-14T06:49:10.652Z,4.50
2019-02-14T06:51:51.690Z,4.70
2019-02-14T06:54:32.667Z,4.60
2019-02-14T06:57:13.119Z,4.13
2019-02-14T06:59:54.027Z,4.37
2019-02-14T07:02:34.873Z,4.30
2019-02-14T07:05:15.828Z,5.00
2019-02-14T07:07:56.565Z,5.33
2019-02-14T07:10:37.336Z,4.97
2019-02-14T07:13:18.100Z,4.73
2019-02-14T07:15:58.756Z,4.67
2019-02-14T07:18:39.484Z,4.20
2019-02-14T07:21:21.742Z,4.20
2019-02-14T07:24:00.658Z,3.70
2019-02-14T07:26:48.407Z,4.03
2019-02-14T07:29:36.156Z,4.37
2019-02-14T07:32:23.996Z,4.43
2019-02-14T07:35:11.804Z,4.33
2019-02-14T07:37:59.556Z,5.40
2019-02-14T07:40:47.300Z,5.77
2019-02-14T07:43:28.384Z,6.43
2019-02-14T07:46:09.175Z,6.17
2019-02-14T07:48:49.811Z,6.40
2019-02-14T07:51:30.256Z,6.13
2019-02-14T07:54:10.808Z,5.50
2019-02-14T07:56:52.538Z,5.70
2019-02-14T07:59:33.544Z,5.27
2019-02-14T08:02:14.411Z,5.80
2019-02-14T08:04:55.026Z,5.07
2019-02-14T08:07:36.305Z,5.60
2019-02-14T08:10:17.244Z,5.87
2019-02-14T08:12:57.976Z,6.40
2019-02-14T08:15:38.572Z,6.77
2019-02-14T08:18:19.794Z,6.43
2019-02-14T08:21:00.204Z,6.57
2019-02-14T08:23:40.580Z,6.83
2019-02-14T08:26:21.000Z,6.50
2019-02-14T08:29:01.609Z,6.33
2019-02-14T08:31:42.576Z,6.87
2019-02-14T08:34:23.859Z,7.00
2019-02-14T08:37:04.618Z,6.70
2019-02-14T08:39:45.365Z,6.37
2019-02-14T08:42:25.920Z,7.30
2019-02-14T08:45:06.592Z,5.83
2019-02-14T08:47:47.128Z,6.00
2019-02-14T08:50:28.992Z,6.30
2019-02-14T08:53:09.992Z,6.00
2019-02-14T08:55:50.784Z,5.67
2019-02-14T08:58:31.324Z,6.10
2019-02-14T09:01:12.273Z,5.57
2019-02-14T09:03:52.656Z,5.87
2019-02-14T09:06:33.233Z,5.80
2019-02-14T09:09:14.129Z,5.23
2019-02-14T09:11:54.973Z,5.30
2019-02-14T09:14:35.901Z,4.97
2019-02-14T09:17:16.801Z,5.30
2019-02-14T09:19:57.631Z,5.40
2019-02-14T09:22:38.196Z,4.97
2019-02-14T09:25:19.000Z,5.20
2019-02-14T09:27:59.415Z,5.53
2019-02-14T09:30:40.140Z,5.70
2019-02-14T09:33:21.200Z,5.70
2019-02-14T09:36:02.589Z,5.77
2019-02-14T09:38:43.336Z,5.70
2019-02-14T09:41:24.102Z,6.00
2019-02-14T09:44:04.699Z,6.00
2019-02-14T09:46:46.329Z,6.37
2019-02-14T09:49:27.112Z,6.20
2019-02-14T09:52:07.697Z,6.73
2019-02-14T09:54:48.678Z,6.27
2019-02-14T09:57:29.370Z,7.07
2019-02-14T10:00:09.806Z,6.20
2019-02-14T10:02:50.552Z,6.80
2019-02-14T10:05:31.409Z,5.83
2019-02-14T10:08:13.262Z,7.70
2019-02-14T10:10:54.053Z,6.80
2019-02-14T10:13:34.805Z,6.80
2019-02-14T10:16:15.326Z,6.33
2019-02-14T10:18:56.084Z,6.93
2019-02-14T10:21:34.824Z,7.33
2019-02-14T10:24:22.625Z,5.97
2019-02-14T10:27:10.370Z,5.60
2019-02-14T10:29:58.129Z,6.00
2019-02-14T10:32:45.864Z,5.90
2019-02-14T10:35:33.624Z,7.00
2019-02-14T10:38:22.684Z,5.43
2019-02-14T10:41:10.860Z,6.80
2019-02-14T10:43:58.601Z,5.97
2019-02-14T10:46:39.363Z,6.07
2019-02-14T10:49:20.278Z,5.73
2019-02-14T10:52:01.289Z,5.40
2019-02-14T10:54:41.816Z,5.03
2019-02-14T10:57:22.535Z,5.50
2019-02-14T11:00:04.042Z,5.33
2019-02-14T11:02:44.916Z,6.00
2019-02-14T11:05:25.847Z,5.40
2019-02-14T11:08:06.510Z,5.30
2019-02-14T11:10:47.345Z,4.50
2019-02-14T11:13:28.344Z,4.90
2019-02-14T11:16:09.793Z,3.50
2019-02-14T11:18:51.037Z,3.40
2019-02-14T11:21:31.861Z,3.47
2019-02-14T11:24:12.942Z,3.43
2019-02-14T11:26:53.916Z,3.40
2019-02-14T11:29:35.007Z,3.37
2019-02-14T11:32:15.492Z,2.87
2019-02-14T11:34:56.200Z,2.80
2019-02-14T11:37:37.061Z,2.37
2019-02-14T11:40:17.876Z,2.57
2019-02-14T11:42:58.014Z,2.70
2019-02-14T11:45:38.493Z,2.90
2019-02-14T11:48:18.924Z,3.40
2019-02-14T11:50:59.684Z,2.80
2019-02-14T11:53:40.073Z,3.03
2019-02-14T11:56:20.922Z,3.07
2019-02-14T11:59:01.276Z,3.33
2019-02-14T12:01:41.976Z,3.43
2019-02-14T12:04:22.425Z,3.37
2019-02-14T12:07:03.313Z,3.50
2019-02-14T12:09:43.613Z,3.27
2019-02-14T12:12:25.797Z,3.10
2019-02-14T12:15:06.597Z,2.90
2019-02-14T12:17:47.499Z,2.27
2019-02-14T12:20:26.756Z,3.13
2019-02-14T12:23:14.607Z,2.83
2019-02-14T12:26:02.401Z,2.80
2019-02-14T12:28:50.149Z,2.60
2019-02-14T12:31:37.893Z,2.70
2019-02-14T12:34:25.655Z,3.03
2019-02-14T12:37:13.396Z,2.87
2019-02-14T12:40:01.158Z,3.87
2019-02-14T12:42:48.960Z,3.83
2019-02-14T12:45:29.463Z,4.00
2019-02-14T12:48:10.018Z,3.20
2019-02-14T12:50:50.852Z,3.70
2019-02-14T12:53:31.728Z,4.23
2019-02-14T12:56:12.609Z,4.07
2019-02-14T12:58:53.416Z,4.13
2019-02-14T13:01:34.395Z,4.33
2019-02-14T13:04:15.261Z,3.73
2019-02-14T13:06:56.018Z,3.97
2019-02-14T13:09:36.977Z,4.50
2019-02-14T13:12:17.520Z,3.70
2019-02-14T13:14:58.192Z,3.87
2019-02-14T13:17:38.920Z,3.70
2019-02-14T13:20:19.805Z,4.00
2019-02-14T13:23:00.636Z,4.10
2019-02-14T13:25:41.216Z,4.00
2019-02-14T13:28:21.752Z,6.10
2019-02-14T13:31:02.267Z,6.10
2019-02-14T13:33:42.856Z,6.27
2019-02-14T13:36:23.512Z,7.13
2019-02-14T13:39:04.861Z,6.77
2019-02-14T13:41:45.680Z,6.07
2019-02-14T13:44:26.024Z,6.50
2019-02-14T13:47:04.727Z,6.97
2019-02-14T13:49:52.481Z,6.20
2019-02-14T13:52:40.226Z,7.70
2019-02-14T13:55:28.438Z,7.40
2019-02-14T13:58:17.458Z,7.70
2019-02-14T14:01:05.290Z,7.37
2019-02-14T14:03:53.030Z,7.53
2019-02-14T14:06:40.797Z,7.30
2019-02-14T14:09:28.628Z,7.40
2019-02-14T14:12:16.371Z,7.70
2019-02-14T14:15:24.852Z,6.93
2019-02-14T14:18:12.598Z,6.40
2019-02-14T14:21:00.352Z,6.53
2019-02-14T14:23:48.112Z,5.97
2019-02-14T14:26:35.865Z,6.57
2019-02-14T14:29:23.617Z,6.33
2019-02-14T14:32:11.368Z,6.43
2019-02-14T14:34:59.121Z,5.87
2019-02-14T14:37:46.876Z,6.37
2019-02-14T14:40:27.607Z,6.17
2019-02-14T14:43:27.474Z,7.20
2019-02-14T14:46:12.308Z,7.17
2019-02-14T14:48:52.956Z,6.40
2019-02-14T14:51:33.752Z,6.43
2019-02-14T14:54:14.281Z,6.53
2019-02-14T14:56:54.932Z,6.00
2019-02-14T14:59:35.628Z,6.57
2019-02-14T15:02:16.477Z,6.20
2019-02-14T15:04:57.237Z,5.00
2019-02-14T15:07:37.705Z,5.07
2019-02-14T15:10:18.793Z,4.93
2019-02-14T15:12:59.479Z,4.80
2019-02-14T15:15:40.466Z,4.10
2019-02-14T15:18:21.247Z,4.90
2019-02-14T15:21:02.197Z,3.63
2019-02-14T15:23:42.989Z,3.13
2019-02-14T15:26:23.565Z,3.43
2019-02-14T15:29:04.660Z,4.20
2019-02-14T15:31:45.567Z,4.40
2019-02-14T15:34:26.639Z,4.90
2019-02-14T15:37:07.395Z,5.60
2019-02-14T15:39:47.985Z,5.50
2019-02-14T15:42:28.584Z,5.67
2019-02-14T15:45:09.414Z,5.73
2019-02-14T15:47:37.812Z,6.27
2019-02-14T15:50:25.574Z,6.50
2019-02-14T15:53:13.319Z,7.10
2019-02-14T15:56:01.071Z,6.83
2019-02-14T15:58:48.816Z,7.00
2019-02-14T16:01:36.574Z,7.03
2019-02-14T16:04:24.325Z,7.50
2019-02-14T16:07:13.302Z,7.00
2019-02-14T16:10:03.763Z,6.73
2019-02-14T16:12:51.034Z,6.80
2019-02-14T16:15:38.799Z,7.10
2019-02-14T16:21:20.589Z,6.73
2019-02-14T16:24:08.333Z,7.30
2019-02-14T16:26:56.096Z,7.50
2019-02-14T16:29:43.839Z,8.43
2019-02-14T16:32:31.619Z,7.80
2019-02-14T16:35:19.365Z,8.40
2019-02-14T16:37:59.781Z,8.00
2019-02-14T16:40:40.689Z,8.70
2019-02-14T16:43:21.571Z,8.80
2019-02-14T16:46:02.372Z,9.73
2019-02-14T16:48:43.151Z,9.30
2019-02-14T16:51:23.988Z,9.90
2019-02-14T16:54:05.022Z,9.57
2019-02-14T16:56:45.831Z,9.53
2019-02-14T16:59:26.768Z,9.40
2019-02-14T17:02:07.548Z,12.57
2019-02-14T17:04:48.107Z,10.00
2019-02-14T17:07:28.957Z,10.07
2019-02-14T17:10:09.912Z,9.83
2019-02-14T17:12:50.676Z,9.27
2019-02-14T17:15:31.717Z,10.03
2019-02-14T17:18:12.660Z,10.20
2019-02-14T17:20:53.526Z,10.80
2019-02-14T17:23:21.948Z,11.37
2019-02-14T17:26:09.688Z,10.33
2019-02-14T17:28:57.459Z,11.00
2019-02-14T17:31:45.276Z,10.60
2019-02-14T17:34:25.628Z,9.97
2019-02-14T17:37:06.260Z,9.63
2019-02-14T17:39:47.253Z,11.50
2019-02-14T17:42:28.204Z,10.80
2019-02-14T17:45:08.870Z,12.40
2019-02-14T17:47:49.533Z,13.70
2019-02-14T17:50:30.107Z,14.03
2019-02-14T17:53:11.092Z,11.50
2019-02-14T17:55:51.973Z,12.53
2019-02-14T17:58:32.875Z,13.57
2019-02-14T18:01:13.511Z,13.40
2019-02-14T18:03:54.432Z,13.20
2019-02-14T18:06:35.035Z,13.93
2019-02-14T18:09:16.004Z,12.50
2019-02-14T18:11:56.665Z,12.00
2019-02-14T18:14:37.172Z,12.40
2019-02-14T18:17:18.107Z,12.97
2019-02-14T18:19:58.709Z,12.20
2019-02-14T18:22:39.509Z,12.50
2019-02-14T18:25:20.312Z,12.40
2019-02-14T18:28:00.588Z,13.57
2019-02-14T18:30:41.692Z,14.70
2019-02-14T18:33:22.552Z,14.37
2019-02-14T18:36:03.320Z,14.73
2019-02-14T18:38:44.273Z,14.20
2019-02-14T18:41:25.420Z,14.10
2019-02-14T18:44:06.467Z,13.37
2019-02-14T18:46:47.211Z,14.57
2019-02-14T18:49:28.304Z,13.13
2019-02-14T18:52:09.089Z,14.50
2019-02-14T18:54:49.729Z,14.90
2019-02-14T18:57:30.684Z,18.27
2019-02-14T19:00:11.546Z,15.67
2019-02-14T19:02:52.079Z,16.40
2019-02-14T19:05:33.116Z,15.80
2019-02-14T19:08:13.692Z,16.03
2019-02-14T19:10:54.576Z,15.63
2019-02-14T19:13:35.340Z,14.80
2019-02-14T19:16:15.887Z,14.57
2019-02-14T19:18:58.700Z,14.07
2019-02-14T19:21:39.830Z,14.30
2019-02-14T19:24:20.616Z,14.53
2019-02-14T19:27:01.384Z,14.93
2019-02-14T19:29:42.449Z,15.57
2019-02-14T19:32:23.338Z,14.60
2019-02-14T19:35:04.126Z,14.40
2019-02-14T19:37:44.488Z,14.47
2019-02-14T19:40:25.081Z,14.93
2019-02-14T19:43:05.814Z,14.40
2019-02-14T19:45:46.748Z,14.73
2019-02-14T19:48:27.255Z,15.30
2019-02-14T19:51:08.069Z,15.37
2019-02-14T19:53:48.914Z,15.70
2019-02-14T19:56:29.617Z,16.20
2019-02-14T19:59:10.535Z,15.37
2019-02-14T20:01:51.376Z,15.37
2019-02-14T20:04:32.450Z,15.87
2019-02-14T20:07:13.006Z,15.20
2019-02-14T20:09:55.593Z,15.17
2019-02-14T20:12:35.864Z,15.13
2019-02-14T20:15:16.506Z,16.20
2019-02-14T20:17:57.391Z,15.77
2019-02-14T20:20:38.116Z,15.60
2019-02-14T20:23:18.972Z,14.30
2019-02-14T20:25:59.949Z,13.50
2019-02-14T20:28:40.654Z,13.97
2019-02-14T20:31:21.520Z,12.90
2019-02-14T20:34:02.238Z,11.73
2019-02-14T20:36:43.135Z,11.40
2019-02-14T20:39:24.144Z,11.43
2019-02-14T20:42:04.981Z,12.47
2019-02-14T20:44:45.814Z,11.67
2019-02-14T20:47:26.592Z,12.10
2019-02-14T20:50:07.386Z,12.63
2019-02-14T20:52:48.269Z,11.77
2019-02-14T20:55:29.068Z,11.33
2019-02-14T20:58:09.804Z,12.00
2019-02-14T21:00:50.781Z,11.83
2019-02-14T21:03:31.668Z,11.27
2019-02-14T21:06:12.872Z,10.50
2019-02-14T21:08:53.684Z,10.17
2019-02-14T21:11:34.706Z,9.57
2019-02-14T21:14:15.326Z,9.13
2019-02-14T21:16:56.011Z,9.00
2019-02-14T21:19:37.043Z,8.60
2019-02-14T21:22:18.808Z,8.30
2019-02-14T21:24:59.957Z,8.20
2019-02-14T21:27:40.490Z,8.23
2019-02-14T21:30:21.467Z,7.37
2019-02-14T21:33:02.372Z,7.87
2019-02-14T21:35:43.083Z,7.07
2019-02-14T21:38:23.939Z,6.13
2019-02-14T21:41:04.623Z,6.23
2019-02-14T21:43:45.252Z,5.90
2019-02-14T21:46:26.178Z,5.80
2019-02-14T21:49:06.941Z,5.93
2019-02-14T21:51:47.772Z,6.07
2019-02-14T21:54:28.711Z,6.10
2019-02-14T21:57:09.391Z,5.93
2019-02-14T21:59:50.240Z,6.23
2019-02-14T22:02:30.689Z,5.97
2019-02-14T22:05:11.210Z,6.53
2019-02-14T22:07:51.862Z,6.77
2019-02-14T22:10:32.881Z,6.57
2019-02-14T22:13:13.607Z,5.90
2019-02-14T22:15:54.526Z,6.40
2019-02-14T22:18:35.179Z,6.30
2019-02-14T22:21:15.872Z,6.50
2019-02-14T22:23:56.580Z,6.30
2019-02-14T22:26:37.445Z,5.57
2019-02-14T22:29:18.330Z,5.87
2019-02-14T22:31:46.749Z,6.00
2019-02-14T22:34:34.508Z,6.10
2019-02-14T22:37:22.275Z,6.10
2019-02-14T22:40:10.589Z,6.20
2019-02-14T22:42:58.352Z,6.50
2019-02-14T22:45:46.129Z,6.07
2019-02-14T22:48:33.912Z,5.90
2019-02-14T22:51:14.501Z,6.20
2019-02-14T22:53:55.419Z,5.53
2019-02-14T22:56:36.032Z,6.23
2019-02-14T22:59:16.636Z,6.53
2019-02-14T23:01:57.371Z,6.37
2019-02-14T23:04:38.249Z,6.67
2019-02-14T23:07:19.136Z,6.73
2019-02-14T23:09:59.925Z,6.73
2019-02-14T23:12:40.696Z,6.37
2019-02-14T23:15:21.334Z,6.10
2019-02-14T23:18:02.099Z,6.60
2019-02-14T23:20:42.928Z,6.83
2019-02-14T23:23:23.722Z,7.00
2019-02-14T23:26:05.689Z,7.37
2019-02-14T23:28:45.870Z,6.90
2019-02-14T23:31:26.522Z,6.77
2019-02-14T23:34:07.306Z,6.73
2019-02-14T23:36:48.211Z,6.30
2019-02-14T23:39:32.468Z,6.03
2019-02-14T23:42:13.622Z,5.90
2019-02-14T23:44:54.349Z,5.87
2019-02-14T23:47:35.450Z,5.73
2019-02-14T23:50:16.415Z,5.83
2019-02-14T23:52:57.378Z,6.13
2019-02-14T23:55:38.250Z,5.57
